createdAt,value
2018-07-17T00:01:45.254Z,9.40
2018-07-17T00:04:14.314Z,9.80
2018-07-17T00:06:43.402Z,11.10
2018-07-17T00:09:13.230Z,11.13
2018-07-17T00:11:42.306Z,10.87
2018-07-17T00:14:11.387Z,9.77
2018-07-17T00:16:40.469Z,10.90
2018-07-17T00:19:09.839Z,11.17
2018-07-17T00:21:39.030Z,9.23
2018-07-17T00:24:09.782Z,9.70
2018-07-17T00:26:39.075Z,10.00
2018-07-17T00:29:09.786Z,10.43
2018-07-17T00:31:38.883Z,10.60
2018-07-17T00:34:07.992Z,10.10
2018-07-17T00:36:37.080Z,9.73
2018-07-17T00:39:06.918Z,10.07
2018-07-17T00:41:36.019Z,10.00
2018-07-17T00:44:05.038Z,10.07
2018-07-17T00:46:34.109Z,9.57
2018-07-17T00:49:03.225Z,10.33
2018-07-17T00:51:32.287Z,9.00
2018-07-17T00:54:01.507Z,8.63
2018-07-17T00:56:31.274Z,9.30
2018-07-17T00:59:01.188Z,11.10
2018-07-17T01:01:40.380Z,10.30
2018-07-17T01:04:14.598Z,9.80
2018-07-17T01:06:49.031Z,9.57
2018-07-17T01:09:23.349Z,10.10
2018-07-17T01:11:57.653Z,9.57
2018-07-17T01:15:33.734Z,10.30
2018-07-17T01:18:02.550Z,10.03
2018-07-17T01:20:31.695Z,10.50
2018-07-17T01:23:00.899Z,10.00
2018-07-17T01:25:30.007Z,9.67
2018-07-17T01:27:59.431Z,12.03
2018-07-17T01:30:28.536Z,12.07
2018-07-17T01:32:57.662Z,11.50
2018-07-17T01:35:26.785Z,10.40
2018-07-17T01:37:55.882Z,11.13
2018-07-17T01:40:24.955Z,10.97
2018-07-17T01:42:54.623Z,11.13
2018-07-17T01:45:24.006Z,11.20
2018-07-17T01:47:53.083Z,12.37
2018-07-17T01:50:22.253Z,11.47
2018-07-17T01:52:51.350Z,10.33
2018-07-17T01:55:20.782Z,11.03
2018-07-17T01:57:50.317Z,10.10
2018-07-17T02:00:20.167Z,11.97
2018-07-17T02:02:49.574Z,12.50
2018-07-17T02:05:18.818Z,11.40
2018-07-17T02:07:48.062Z,12.07
2018-07-17T02:10:16.870Z,11.10
2018-07-17T02:12:46.047Z,10.43
2018-07-17T02:15:15.087Z,10.10
2018-07-17T02:17:44.204Z,10.43
2018-07-17T02:20:13.318Z,10.67
2018-07-17T02:22:42.802Z,11.00
2018-07-17T02:25:12.850Z,11.70
2018-07-17T02:27:41.947Z,10.57
2018-07-17T02:30:11.031Z,12.10
2018-07-17T02:32:40.187Z,12.50
2018-07-17T02:35:09.363Z,11.00
2018-07-17T02:37:38.555Z,11.33
2018-07-17T02:40:08.199Z,11.40
2018-07-17T02:42:37.340Z,11.03
2018-07-17T02:45:06.699Z,9.60
2018-07-17T02:47:35.818Z,11.17
2018-07-17T02:50:04.970Z,11.40
2018-07-17T02:52:34.096Z,11.80
2018-07-17T02:55:03.235Z,12.57
2018-07-17T02:57:32.356Z,10.50
2018-07-17T03:00:01.228Z,9.50
2018-07-17T03:02:30.348Z,11.43
2018-07-17T03:04:59.479Z,11.90
2018-07-17T03:07:29.336Z,10.70
2018-07-17T03:09:58.475Z,11.20
2018-07-17T03:12:27.566Z,11.10
2018-07-17T03:14:56.671Z,9.93
2018-07-17T03:17:25.799Z,11.00
2018-07-17T03:19:54.959Z,11.40
2018-07-17T03:22:24.086Z,10.90
2018-07-17T03:24:53.191Z,10.90
2018-07-17T03:27:22.284Z,9.33
2018-07-17T03:29:51.766Z,11.13
2018-07-17T03:32:20.846Z,11.67
2018-07-17T03:34:49.930Z,10.17
2018-07-17T03:37:19.058Z,11.27
2018-07-17T03:39:48.151Z,11.03
2018-07-17T03:42:17.239Z,10.00
2018-07-17T03:44:47.143Z,11.57
2018-07-17T03:47:16.226Z,11.63
2018-07-17T03:49:45.314Z,11.83
2018-07-17T03:52:14.452Z,11.17
2018-07-17T03:54:43.590Z,11.53
2018-07-17T03:57:12.702Z,10.50
2018-07-17T03:59:41.975Z,12.40
2018-07-17T04:02:12.962Z,10.67
2018-07-17T04:04:42.247Z,11.93
2018-07-17T04:07:12.154Z,10.40
2018-07-17T04:09:41.267Z,10.47
2018-07-17T04:12:10.359Z,10.33
2018-07-17T04:14:39.462Z,11.43
2018-07-17T04:17:08.610Z,10.83
2018-07-17T04:19:37.783Z,12.10
2018-07-17T04:22:07.111Z,11.90
2018-07-17T04:24:36.227Z,11.40
2018-07-17T04:27:05.891Z,11.27
2018-07-17T04:29:35.006Z,10.00
2018-07-17T04:32:04.927Z,10.53
2018-07-17T04:34:35.007Z,10.80
2018-07-17T04:37:04.723Z,9.80
2018-07-17T04:39:33.863Z,9.00
2018-07-17T04:42:02.967Z,10.73
2018-07-17T04:44:32.886Z,9.93
2018-07-17T04:47:02.042Z,8.77
2018-07-17T04:49:31.127Z,8.70
2018-07-17T04:52:00.898Z,9.93
2018-07-17T04:54:29.998Z,9.20
2018-07-17T04:56:59.178Z,9.23
2018-07-17T04:59:29.366Z,8.20
2018-07-17T05:01:58.697Z,9.10
2018-07-17T05:04:27.822Z,8.70
2018-07-17T05:06:57.147Z,8.80
2018-07-17T05:09:26.835Z,9.40
2018-07-17T05:11:56.183Z,9.60
2018-07-17T05:14:25.546Z,8.80
2018-07-17T05:16:54.786Z,8.73
2018-07-17T05:19:23.980Z,10.10
2018-07-17T05:21:53.063Z,9.17
2018-07-17T05:24:22.154Z,9.17
2018-07-17T05:26:51.275Z,9.47
2018-07-17T05:29:21.526Z,8.63
2018-07-17T05:31:50.607Z,9.10
2018-07-17T05:34:23.138Z,9.00
2018-07-17T05:36:54.022Z,8.07
2018-07-17T05:39:23.194Z,9.10
2018-07-17T05:41:52.662Z,8.40
2018-07-17T05:44:21.774Z,9.23
2018-07-17T05:46:51.680Z,8.40
2018-07-17T05:49:21.722Z,8.70
2018-07-17T05:51:50.407Z,9.60
2018-07-17T05:54:19.695Z,8.70
2018-07-17T05:56:48.375Z,8.60
2018-07-17T05:59:17.495Z,8.30
2018-07-17T06:01:46.734Z,8.20
2018-07-17T06:04:16.110Z,7.83
2018-07-17T06:06:45.506Z,8.37
2018-07-17T06:09:15.128Z,9.00
2018-07-17T06:11:44.204Z,8.90
2018-07-17T06:14:13.342Z,8.80
2018-07-17T06:16:42.446Z,9.20
2018-07-17T06:19:11.514Z,9.00
2018-07-17T06:21:40.635Z,9.03
2018-07-17T06:24:09.730Z,8.50
2018-07-17T06:26:38.850Z,9.13
2018-07-17T06:29:07.546Z,9.30
2018-07-17T06:31:36.978Z,8.43
2018-07-17T06:34:06.358Z,8.90
2018-07-17T06:36:35.434Z,7.40
2018-07-17T06:39:06.718Z,8.10
2018-07-17T06:41:35.802Z,8.70
2018-07-17T06:44:05.384Z,8.40
2018-07-17T06:46:34.631Z,8.70
2018-07-17T06:49:03.746Z,9.20
2018-07-17T06:51:32.867Z,7.83
2018-07-17T06:54:01.990Z,9.03
2018-07-17T06:56:31.111Z,8.93
2018-07-17T06:59:00.194Z,8.37
2018-07-17T07:01:29.179Z,7.63
2018-07-17T07:03:58.292Z,8.90
2018-07-17T07:06:27.842Z,9.60
2018-07-17T07:08:57.366Z,9.33
2018-07-17T07:11:26.459Z,9.17
2018-07-17T07:13:55.550Z,9.13
2018-07-17T07:16:24.688Z,8.70
2018-07-17T07:18:53.791Z,9.07
2018-07-17T07:21:23.092Z,9.07
2018-07-17T07:23:52.216Z,7.97
2018-07-17T07:26:20.941Z,9.07
2018-07-17T07:28:50.031Z,9.43
2018-07-17T07:31:19.106Z,8.00
2018-07-17T07:33:48.230Z,8.50
2018-07-17T07:36:17.354Z,8.30
2018-07-17T07:38:46.818Z,8.67
2018-07-17T07:41:15.915Z,8.20
2018-07-17T07:43:45.022Z,7.97
2018-07-17T07:46:14.141Z,7.77
2018-07-17T07:48:44.438Z,8.57
2018-07-17T07:51:13.762Z,8.80
2018-07-17T07:53:43.059Z,8.20
2018-07-17T07:56:11.791Z,8.70
2018-07-17T07:58:40.972Z,8.03
2018-07-17T08:01:10.258Z,8.67
2018-07-17T08:03:39.566Z,9.13
2018-07-17T08:06:08.234Z,9.40
2018-07-17T08:08:37.827Z,8.30
2018-07-17T08:11:06.983Z,8.13
2018-07-17T08:13:36.098Z,8.70
2018-07-17T08:16:05.174Z,7.40
2018-07-17T08:18:34.673Z,7.50
2018-07-17T08:21:03.772Z,7.97
2018-07-17T08:23:32.830Z,7.80
2018-07-17T08:26:02.339Z,7.40
2018-07-17T08:28:31.451Z,8.27
2018-07-17T08:31:00.920Z,8.50
2018-07-17T08:33:30.251Z,7.40
2018-07-17T08:35:59.354Z,7.20
2018-07-17T08:38:28.490Z,8.33
2018-07-17T08:40:57.562Z,6.87
2018-07-17T08:43:26.704Z,8.20
2018-07-17T08:45:56.003Z,7.77
2018-07-17T08:48:25.142Z,8.00
2018-07-17T08:50:54.215Z,6.63
2018-07-17T08:53:23.310Z,7.33
2018-07-17T08:55:52.435Z,6.83
2018-07-17T08:58:21.538Z,8.70
2018-07-17T09:00:51.118Z,7.37
2018-07-17T09:03:20.710Z,7.57
2018-07-17T09:05:49.826Z,7.20
2018-07-17T09:08:18.872Z,8.03
2018-07-17T09:10:48.142Z,7.03
2018-07-17T09:13:17.235Z,8.20
2018-07-17T09:15:46.352Z,8.13
2018-07-17T09:18:15.499Z,7.27
2018-07-17T09:20:44.634Z,7.90
2018-07-17T09:23:13.779Z,7.87
2018-07-17T09:25:42.975Z,7.07
2018-07-17T09:28:12.084Z,7.30
2018-07-17T09:30:46.340Z,7.60
2018-07-17T09:33:16.715Z,6.87
2018-07-17T09:35:45.802Z,7.13
2018-07-17T09:38:14.934Z,8.00
2018-07-17T09:40:44.058Z,7.40
2018-07-17T09:43:13.138Z,7.13
2018-07-17T09:45:42.319Z,7.90
2018-07-17T09:48:11.754Z,6.60
2018-07-17T09:50:41.138Z,8.00
2018-07-17T09:53:10.842Z,8.00
2018-07-17T09:55:40.214Z,7.93
2018-07-17T09:58:09.519Z,8.30
2018-07-17T10:00:44.414Z,7.43
2018-07-17T10:03:13.658Z,7.40
2018-07-17T10:05:43.083Z,7.30
2018-07-17T10:08:12.201Z,6.90
2018-07-17T10:10:41.379Z,7.63
2018-07-17T10:13:10.890Z,7.40
2018-07-17T10:15:40.016Z,6.33
2018-07-17T10:18:09.175Z,6.57
2018-07-17T10:20:38.298Z,6.30
2018-07-17T10:23:07.374Z,6.70
2018-07-17T10:25:36.675Z,6.70
2018-07-17T10:28:05.847Z,6.70
2018-07-17T10:30:34.906Z,7.83
2018-07-17T10:33:04.027Z,7.17
2018-07-17T10:35:33.214Z,6.97
2018-07-17T10:38:03.171Z,6.30
2018-07-17T10:40:32.980Z,6.30
2018-07-17T10:43:02.330Z,6.53
2018-07-17T10:45:32.010Z,6.60
2018-07-17T10:48:01.151Z,6.93
2018-07-17T10:50:30.710Z,6.10
2018-07-17T10:53:00.630Z,6.70
2018-07-17T10:55:29.866Z,5.90
2018-07-17T10:57:58.962Z,5.70
2018-07-17T11:00:28.093Z,6.50
2018-07-17T11:02:57.261Z,6.27
2018-07-17T11:05:26.515Z,6.87
2018-07-17T11:07:57.499Z,6.17
2018-07-17T11:10:26.527Z,5.53
2018-07-17T11:12:56.055Z,8.60
2018-07-17T11:15:25.787Z,6.20
2018-07-17T11:17:54.864Z,6.70
2018-07-17T11:20:23.986Z,6.60
2018-07-17T11:22:53.311Z,5.00
2018-07-17T11:25:22.398Z,5.90
2018-07-17T11:27:51.535Z,6.50
2018-07-17T11:30:20.646Z,6.30
2018-07-17T11:32:49.826Z,5.90
2018-07-17T11:35:19.590Z,5.37
2018-07-17T11:37:48.703Z,5.30
2018-07-17T11:40:17.827Z,5.97
2018-07-17T11:42:47.003Z,6.40
2018-07-17T11:45:16.830Z,6.00
2018-07-17T11:47:45.934Z,6.30
2018-07-17T11:50:15.054Z,5.07
2018-07-17T11:52:44.166Z,5.37
2018-07-17T11:55:13.294Z,5.60
2018-07-17T11:57:42.828Z,6.07
2018-07-17T12:00:11.949Z,5.63
2018-07-17T12:02:41.042Z,4.67
2018-07-17T12:05:09.787Z,5.60
2018-07-17T12:07:38.991Z,5.10
2018-07-17T12:10:08.163Z,5.70
2018-07-17T12:12:37.863Z,4.90
2018-07-17T12:15:07.398Z,5.20
2018-07-17T12:17:36.644Z,6.23
2018-07-17T12:20:06.319Z,5.80
2018-07-17T12:22:35.959Z,5.40
2018-07-17T12:25:05.124Z,6.03
2018-07-17T12:27:34.355Z,5.27
2018-07-17T12:30:03.629Z,5.13
2018-07-17T12:32:32.828Z,5.27
2018-07-17T12:35:02.344Z,6.20
2018-07-17T12:37:32.082Z,5.00
2018-07-17T12:40:01.880Z,6.07
2018-07-17T12:42:31.013Z,4.60
2018-07-17T12:45:00.183Z,5.43
2018-07-17T12:47:29.277Z,4.90
2018-07-17T12:49:58.181Z,5.27
2018-07-17T12:52:27.283Z,4.90
2018-07-17T12:54:56.375Z,5.17
2018-07-17T12:57:25.530Z,4.80
2018-07-17T12:59:54.673Z,5.97
2018-07-17T13:02:23.792Z,6.00
2018-07-17T13:04:53.660Z,6.50
2018-07-17T13:07:22.934Z,4.70
2018-07-17T13:09:52.032Z,5.23
2018-07-17T13:12:21.188Z,5.23
2018-07-17T13:14:50.306Z,4.70
2018-07-17T13:17:19.435Z,5.00
2018-07-17T13:19:48.598Z,4.63
2018-07-17T13:22:17.719Z,4.53
2018-07-17T13:24:46.868Z,6.13
2018-07-17T13:27:16.080Z,5.10
2018-07-17T13:29:45.207Z,4.83
2018-07-17T13:32:14.351Z,4.93
2018-07-17T13:34:43.622Z,4.53
2018-07-17T13:37:12.747Z,4.57
2018-07-17T13:39:41.860Z,3.90
2018-07-17T13:42:11.011Z,4.70
2018-07-17T13:44:40.117Z,4.53
2018-07-17T13:47:09.200Z,4.57
2018-07-17T13:49:39.024Z,4.90
2018-07-17T13:52:08.141Z,3.97
2018-07-17T13:54:38.019Z,5.20
2018-07-17T13:57:07.764Z,4.20
2018-07-17T13:59:38.265Z,5.60
2018-07-17T14:02:07.832Z,5.57
2018-07-17T14:04:38.438Z,6.50
2018-07-17T14:07:08.558Z,8.03
2018-07-17T14:09:38.302Z,6.40
2018-07-17T14:12:07.992Z,8.37
2018-07-17T14:14:37.478Z,8.13
2018-07-17T14:17:06.661Z,8.13
2018-07-17T14:19:35.863Z,9.10
2018-07-17T14:22:05.371Z,5.47
2018-07-17T14:24:34.882Z,5.60
2018-07-17T14:27:03.635Z,7.73
2018-07-17T14:29:33.680Z,8.00
2018-07-17T14:32:02.906Z,7.13
2018-07-17T14:34:32.081Z,6.90
2018-07-17T14:37:01.615Z,4.90
2018-07-17T14:39:30.823Z,5.00
2018-07-17T14:42:01.207Z,4.63
2018-07-17T14:44:30.714Z,5.33
2018-07-17T14:47:00.048Z,3.83
2018-07-17T14:49:30.511Z,4.20
2018-07-17T14:51:59.871Z,3.93
2018-07-17T14:54:29.195Z,4.30
2018-07-17T14:56:58.599Z,3.93
2018-07-17T14:59:27.918Z,4.13
2018-07-17T15:01:56.990Z,4.20
2018-07-17T15:04:26.611Z,3.40
2018-07-17T15:06:55.965Z,4.27
2018-07-17T15:09:24.684Z,4.80
2018-07-17T15:11:53.834Z,3.60
2018-07-17T15:14:23.522Z,3.90
2018-07-17T15:16:52.730Z,4.27
2018-07-17T15:19:22.354Z,4.23
2018-07-17T15:21:51.585Z,4.33
2018-07-17T15:24:21.355Z,4.00
2018-07-17T15:26:51.624Z,3.70
2018-07-17T15:29:20.740Z,5.10
2018-07-17T15:31:50.133Z,4.80
2018-07-17T15:34:19.246Z,4.20
2018-07-17T15:36:48.615Z,4.73
2018-07-17T15:39:18.386Z,4.47
2018-07-17T15:41:48.273Z,4.47
2018-07-17T15:44:17.815Z,4.60
2018-07-17T15:46:47.305Z,3.90
2018-07-17T15:49:17.087Z,4.23
2018-07-17T15:51:46.910Z,4.50
2018-07-17T15:54:17.138Z,4.53
2018-07-17T15:56:46.298Z,4.40
2018-07-17T15:59:16.194Z,4.70
2018-07-17T16:01:46.846Z,4.93
2018-07-17T16:04:16.600Z,4.37
2018-07-17T16:06:46.129Z,4.50
2018-07-17T16:09:15.627Z,5.27
2018-07-17T16:11:44.748Z,4.43
2018-07-17T16:14:14.109Z,4.50
2018-07-17T16:16:42.934Z,4.70
2018-07-17T16:19:12.068Z,4.70
2018-07-17T16:21:41.187Z,4.77
2018-07-17T16:24:11.052Z,5.07
2018-07-17T16:26:40.215Z,4.90
2018-07-17T16:29:09.247Z,5.33
2018-07-17T16:31:38.388Z,4.90
2018-07-17T16:34:07.595Z,5.30
2018-07-17T16:36:36.815Z,4.67
2018-07-17T16:39:08.276Z,5.00
2018-07-17T16:41:37.437Z,4.50
2018-07-17T16:44:06.546Z,4.60
2018-07-17T16:46:35.642Z,4.87
2018-07-17T16:49:04.807Z,5.67
2018-07-17T16:51:33.959Z,4.67
2018-07-17T16:54:03.533Z,5.57
2018-07-17T16:56:32.554Z,4.90
2018-07-17T16:59:01.670Z,5.10
2018-07-17T17:01:30.763Z,5.07
2018-07-17T17:03:59.871Z,5.20
2018-07-17T17:06:28.963Z,5.40
2018-07-17T17:08:58.883Z,4.60
2018-07-17T17:11:28.067Z,5.33
2018-07-17T17:13:58.354Z,5.43
2018-07-17T17:16:27.703Z,5.90
2018-07-17T17:18:56.799Z,5.60
2018-07-17T17:21:25.945Z,5.30
2018-07-17T17:23:55.167Z,5.77
2018-07-17T17:26:24.183Z,6.60
2018-07-17T17:28:53.286Z,6.57
2018-07-17T17:31:22.414Z,6.60
2018-07-17T17:33:51.510Z,5.00
2018-07-17T17:36:21.369Z,5.97
2018-07-17T17:38:50.469Z,8.10
2018-07-17T17:41:19.534Z,6.60
2018-07-17T17:43:49.466Z,9.20
2018-07-17T17:46:18.631Z,6.67
2018-07-17T17:48:48.190Z,6.10
2018-07-17T17:51:17.354Z,6.27
2018-07-17T17:53:46.446Z,6.03
2018-07-17T17:56:16.715Z,5.40
2018-07-17T17:58:46.593Z,5.90
2018-07-17T18:01:16.166Z,6.10
2018-07-17T18:03:45.295Z,5.70
2018-07-17T18:06:14.531Z,5.70
2018-07-17T18:08:45.047Z,5.70
2018-07-17T18:11:14.920Z,5.87
2018-07-17T18:13:45.300Z,5.73
2018-07-17T18:16:14.487Z,6.20
2018-07-17T18:18:43.692Z,5.37
2018-07-17T18:21:13.199Z,5.80
2018-07-17T18:23:42.368Z,5.73
2018-07-17T18:26:11.537Z,5.83
2018-07-17T18:28:40.622Z,6.47
2018-07-17T18:31:09.829Z,5.60
2018-07-17T18:33:39.006Z,5.87
2018-07-17T18:36:08.164Z,6.97
2018-07-17T18:38:37.431Z,6.30
2018-07-17T18:41:06.532Z,6.37
2018-07-17T18:43:35.665Z,6.70
2018-07-17T18:46:04.903Z,6.30
2018-07-17T18:48:34.108Z,7.33
2018-07-17T18:51:03.238Z,6.10
2018-07-17T18:53:33.043Z,6.80
2018-07-17T18:56:02.119Z,5.30
2018-07-17T18:58:31.241Z,5.23
2018-07-17T19:01:02.063Z,5.33
2018-07-17T19:03:31.182Z,6.10
2018-07-17T19:06:00.276Z,5.40
2018-07-17T19:08:29.388Z,5.37
2018-07-17T19:10:58.518Z,5.10
2018-07-17T19:13:28.346Z,4.80
2018-07-17T19:15:58.827Z,5.37
2018-07-17T19:18:28.282Z,5.50
2018-07-17T19:20:57.527Z,4.67
2018-07-17T19:23:26.822Z,4.20
2018-07-17T19:25:56.099Z,4.67
2018-07-17T19:28:26.055Z,3.93
2018-07-17T19:30:55.310Z,4.60
2018-07-17T19:33:24.113Z,5.67
2018-07-17T19:35:54.999Z,4.60
2018-07-17T19:38:23.745Z,4.33
2018-07-17T19:40:52.858Z,4.63
2018-07-17T19:43:21.980Z,4.73
2018-07-17T19:45:51.462Z,4.17
2018-07-17T19:48:21.539Z,4.20
2018-07-17T19:50:51.930Z,4.30
2018-07-17T19:53:21.962Z,3.90
2018-07-17T19:55:50.707Z,3.83
2018-07-17T19:58:19.838Z,4.30
2018-07-17T20:00:49.334Z,4.57
2018-07-17T20:03:18.486Z,4.10
2018-07-17T20:05:47.578Z,3.70
2018-07-17T20:08:16.794Z,3.97
2018-07-17T20:10:46.878Z,4.23
2018-07-17T20:13:16.015Z,3.30
2018-07-17T20:15:45.215Z,3.90
2018-07-17T20:18:15.104Z,4.50
2018-07-17T20:20:44.586Z,4.53
2018-07-17T20:23:14.575Z,4.20
2018-07-17T20:25:43.726Z,3.60
2018-07-17T20:28:13.403Z,5.30
2018-07-17T20:30:42.495Z,5.83
2018-07-17T20:33:11.737Z,5.10
2018-07-17T20:35:40.882Z,4.70
2018-07-17T20:38:09.979Z,4.27
2018-07-17T20:40:39.088Z,4.13
2018-07-17T20:43:08.203Z,4.47
2018-07-17T20:45:38.292Z,4.00
2018-07-17T20:48:07.492Z,4.53
2018-07-17T20:50:37.043Z,4.73
2018-07-17T20:53:06.701Z,4.30
2018-07-17T20:55:35.729Z,4.40
2018-07-17T20:58:05.279Z,4.70
2018-07-17T21:00:34.658Z,4.77
2018-07-17T21:03:04.652Z,4.60
2018-07-17T21:05:33.801Z,5.07
2018-07-17T21:08:02.982Z,5.00
2018-07-17T21:10:32.198Z,5.20
2018-07-17T21:13:01.422Z,4.50
2018-07-17T21:15:31.271Z,5.00
2018-07-17T21:18:00.444Z,5.10
2018-07-17T21:20:30.363Z,4.43
2018-07-17T21:22:59.587Z,4.50
2018-07-17T21:25:28.911Z,4.80
2018-07-17T21:27:58.352Z,5.10
2018-07-17T21:30:28.266Z,5.10
2018-07-17T21:32:58.149Z,4.57
2018-07-17T21:35:27.566Z,5.00
2018-07-17T21:37:57.332Z,4.77
2018-07-17T21:40:26.890Z,5.33
2018-07-17T21:42:55.519Z,6.50
2018-07-17T21:45:25.600Z,6.00
2018-07-17T21:47:54.798Z,5.80
2018-07-17T21:50:24.296Z,5.27
2018-07-17T21:52:53.431Z,5.73
2018-07-17T21:55:22.551Z,4.97
2018-07-17T21:57:51.635Z,4.80
2018-07-17T22:00:20.738Z,5.60
2018-07-17T22:02:50.724Z,5.70
2018-07-17T22:05:19.874Z,5.10
2018-07-17T22:07:48.976Z,5.30
2018-07-17T22:10:18.047Z,5.20
2018-07-17T22:12:48.403Z,5.33
2018-07-17T22:15:17.504Z,4.87
2018-07-17T22:17:46.806Z,4.60
2018-07-17T22:20:16.006Z,5.30
2018-07-17T22:22:45.105Z,5.60
2018-07-17T22:25:14.198Z,5.90
2018-07-17T22:27:43.799Z,6.03
2018-07-17T22:30:12.907Z,5.57
2018-07-17T22:32:42.030Z,5.70
2018-07-17T22:35:11.338Z,5.63
2018-07-17T22:37:40.434Z,6.17
2018-07-17T22:40:09.552Z,5.90
2018-07-17T22:42:38.414Z,5.10
2018-07-17T22:45:07.375Z,6.20
2018-07-17T22:47:36.767Z,5.20
2018-07-17T22:50:05.875Z,5.57
2018-07-17T22:52:34.973Z,5.20
2018-07-17T22:55:04.127Z,5.60
2018-07-17T22:57:33.246Z,7.60
2018-07-17T23:00:02.363Z,6.20
2018-07-17T23:02:32.346Z,5.37
2018-07-17T23:05:02.207Z,6.03
2018-07-17T23:07:30.950Z,4.90
2018-07-17T23:10:00.080Z,5.70
2018-07-17T23:12:29.374Z,5.60
2018-07-17T23:14:58.643Z,6.50
2018-07-17T23:17:27.718Z,5.77
2018-07-17T23:19:57.863Z,5.97
2018-07-17T23:22:40.018Z,5.60
2018-07-17T23:25:09.678Z,6.47
2018-07-17T23:27:38.769Z,5.57
2018-07-17T23:30:07.894Z,6.30
2018-07-17T23:32:37.010Z,6.03
2018-07-17T23:35:06.091Z,6.20
2018-07-17T23:37:35.991Z,6.60
2018-07-17T23:40:05.163Z,6.20
2018-07-17T23:42:34.259Z,6.70
2018-07-17T23:45:04.094Z,6.17
2018-07-17T23:47:33.181Z,6.60
2018-07-17T23:50:02.287Z,6.80
2018-07-17T23:52:31.428Z,6.60
2018-07-17T23:55:01.305Z,7.20
2018-07-17T23:57:30.419Z,6.77
2018-07-17T23:59:59.591Z,7.20
